Time;durP1;ratioP1;P1;durP2;ratioP2;P2;SDS_P1;SDS_P2;PMS_P1;PMS_P2;Temp;Humidity;BMP_temperature;BMP_pressure;BME280_temperature;BME280_humidity;BME280_pressure;Samples;Min_cycle;Max_cycle;Signal;HPM_P1;HPM_P2
2022/06/02 03:52:37;;;;;;;8.15;5.50;;;;;;;17.83;79.67;100584.09;5606545;31;77187;-55
2022/06/02 03:55:57;;;;;;;9.98;5.35;;;;;;;17.83;79.67;100584.09;5584111;32;33397;-55
2022/06/02 03:59:14;;;;;;;6.93;5.65;;;;;;;17.34;88.14;100569.19;5584076;32;33725;-55
2022/06/02 04:02:29;;;;;;;7.80;5.37;;;;;;;17.24;87.28;100555.97;5582480;32;33431;-55
2022/06/02 04:05:43;;;;;;;9.10;5.30;;;;;;;17.09;86.71;100546.44;5583973;32;33627;-55
2022/06/02 04:09:02;;;;;;;8.57;5.50;;;;;;;17.16;87.16;100543.25;5583835;31;33616;-55
2022/06/02 04:16:00;;;;;;;9.18;5.65;;;;;;;17.52;85.30;100551.00;5583973;32;33686;-55
2022/06/02 04:23:23;;;;;;;8.63;5.55;;;;;;;17.59;83.65;100581.91;5583780;32;34206;-55
2022/06/02 04:26:51;;;;;;;7.07;5.40;;;;;;;17.43;87.94;100574.59;5583198;32;33660;-55
2022/06/02 04:30:03;;;;;;;8.68;5.70;;;;;;;17.32;89.71;100580.34;5583791;31;33293;-55
2022/06/02 04:33:14;;;;;;;6.18;5.15;;;;;;;17.41;89.17;100585.75;5583155;31;33741;-56
2022/06/02 04:36:30;;;;;;;5.78;4.97;;;;;;;17.59;83.40;100583.81;5577702;31;33703;-56
2022/06/02 04:39:54;;;;;;;6.37;4.65;;;;;;;17.59;87.98;100581.91;5563716;32;33577;-55
2022/06/02 04:43:15;;;;;;;6.07;4.57;;;;;;;17.66;88.52;100578.69;5563655;32;33705;-55
2022/06/02 04:46:36;;;;;;;5.95;4.40;;;;;;;17.72;85.39;100568.50;5563452;32;34252;-56
2022/06/02 04:50:31;;;;;;;9.68;4.57;;;;;;;17.99;80.08;100584.38;5563570;32;34306;-55
2022/06/02 04:53:48;;;;;;;7.50;4.72;;;;;;;18.08;81.33;100597.91;5539666;32;33636;-55
2022/06/02 04:57:16;;;;;;;8.27;5.20;;;;;;;17.91;87.35;100597.97;5563217;32;34142;-55
2022/06/02 05:00:46;;;;;;;6.35;5.00;;;;;;;17.93;86.67;100593.81;5575832;32;33735;-55
2022/06/02 05:04:10;;;;;;;6.05;4.45;;;;;;;17.89;86.28;100592.87;5567750;32;34294;-55
2022/06/02 05:07:47;;;;;;;6.15;5.25;;;;;;;17.92;89.14;100592.22;5569614;32;34289;-55
2022/06/02 05:10:59;;;;;;;9.93;5.00;;;;;;;17.93;89.39;100591.09;5569213;32;33657;-55
2022/06/02 05:14:23;;;;;;;5.68;4.82;;;;;;;17.97;92.53;100585.81;5569972;32;34431;-55
2022/06/02 05:17:28;;;;;;;6.05;4.93;;;;;;;18.00;88.60;100580.53;5570240;32;34296;-55
2022/06/02 05:20:49;;;;;;;6.13;4.63;;;;;;;18.13;88.46;100592.28;5568531;32;33680;-55
2022/06/02 05:24:12;;;;;;;9.15;4.78;;;;;;;18.25;81.93;100611.41;5569779;32;33835;-55
2022/06/02 05:27:48;;;;;;;6.97;4.30;;;;;;;18.15;78.43;100614.47;5569711;32;33831;-55
2022/06/02 05:30:56;;;;;;;;;;;;;;;18.20;83.69;100614.28;5570125;32;33755;-55
2022/06/02 05:34:19;;;;;;;8.77;4.90;;;;;;;18.28;77.99;100618.09;5570233;32;34611;-55
2022/06/02 05:37:50;;;;;;;8.35;4.90;;;;;;;18.28;79.89;100613.47;5564485;32;33616;-55
2022/06/02 05:41:14;;;;;;;7.63;4.80;;;;;;;18.49;78.07;100615.44;5569413;32;33673;-55
2022/06/02 05:44:48;;;;;;;6.90;5.22;;;;;;;18.40;79.81;100620.91;5569414;32;33751;-56
2022/06/02 05:48:23;;;;;;;6.68;5.25;;;;;;;18.43;82.30;100617.53;5569260;32;33677;-55
2022/06/02 05:51:33;;;;;;;6.47;4.82;;;;;;;18.42;79.50;100624.09;5568230;32;33690;-55
2022/06/02 05:54:49;;;;;;;6.00;4.87;;;;;;;18.46;80.91;100622.31;5569440;32;34073;-55
2022/06/02 05:58:07;;;;;;;7.40;4.82;;;;;;;18.57;79.82;100619.22;5568502;32;34173;-56
2022/06/02 06:01:15;;;;;;;5.37;4.53;;;;;;;18.64;78.12;100614.88;5568833;32;33912;-55
2022/06/02 06:04:30;;;;;;;6.55;4.78;;;;;;;18.71;81.47;100628.75;5567435;32;34400;-55
2022/06/02 06:07:57;;;;;;;5.62;4.43;;;;;;;18.79;78.74;100627.13;5567530;32;34267;-56
2022/06/02 06:11:26;;;;;;;5.82;4.57;;;;;;;18.78;78.67;100636.41;5568594;32;33895;-57
2022/06/02 06:14:40;;;;;;;6.18;4.25;;;;;;;18.96;76.61;100642.50;5567673;32;34404;-55
2022/06/02 06:18:13;;;;;;;5.72;3.95;;;;;;;19.13;74.30;100634.22;5568573;32;33732;-56
2022/06/02 06:21:58;;;;;;;6.90;4.70;;;;;;;19.19;75.66;100634.81;5560821;32;34234;-56
2022/06/02 06:25:19;;;;;;;11.25;6.35;;;;;;;19.21;74.28;100646.16;5567887;32;33679;-55
2022/06/02 06:28:32;;;;;;;11.38;6.37;;;;;;;19.13;79.30;100644.31;5568300;32;33207;-56
2022/06/02 06:31:44;;;;;;;8.07;6.82;;;;;;;19.21;82.19;100648.88;5567683;32;33662;-56
2022/06/02 06:35:08;;;;;;;10.45;7.35;;;;;;;19.21;78.14;100644.25;5558190;32;33227;-55
2022/06/02 06:38:19;;;;;;;7.50;6.53;;;;;;;19.29;78.73;100660.81;5552972;32;33711;-55
2022/06/02 06:41:58;;;;;;;12.17;7.00;;;;;;;19.48;79.05;100661.94;5549464;32;33767;-55
2022/06/02 06:45:22;;;;;;;7.62;5.87;;;;;;;19.70;76.66;100670.87;5549467;32;33526;-55
2022/06/02 06:48:35;;;;;;;9.57;6.20;;;;;;;19.69;78.57;100670.06;5564979;32;34276;-56
2022/06/02 06:51:49;;;;;;;10.35;6.78;;;;;;;19.85;75.87;100658.59;5568057;32;33806;-55
2022/06/02 06:55:18;;;;;;;10.35;6.50;;;;;;;19.85;72.53;100672.97;5568065;32;33687;-55
2022/06/02 06:58:44;;;;;;;8.90;6.30;;;;;;;19.79;73.01;100681.69;5567427;32;33594;-57
2022/06/02 07:02:05;;;;;;;8.02;6.07;;;;;;;19.75;76.09;100678.84;5568579;32;33606;-55
2022/06/02 07:05:20;;;;;;;7.45;6.65;;;;;;;19.78;80.33;100683.59;5568707;32;34394;-56
2022/06/02 07:08:31;;;;;;;6.80;5.25;;;;;;;19.95;75.40;100688.09;5568574;32;33457;-55
2022/06/02 07:15:25;;;;;;;8.50;6.32;;;;;;;20.23;76.81;100687.47;5568020;32;33828;-56
2022/06/02 07:18:59;;;;;;;7.87;6.50;;;;;;;20.32;74.51;100688.16;5568016;32;33291;-55
2022/06/02 07:22:17;;;;;;;7.97;5.53;;;;;;;20.48;72.04;100685.56;5568637;32;33602;-55
2022/06/02 07:25:34;;;;;;;13.27;6.78;;;;;;;20.56;75.25;100684.69;5567764;32;33768;-55
2022/06/02 07:28:55;;;;;;;10.15;6.78;;;;;;;20.64;72.49;100678.34;5566613;32;33565;-56
2022/06/02 07:32:22;;;;;;;8.48;6.07;;;;;;;20.63;69.90;100685.72;5567363;32;34364;-55
2022/06/02 07:35:35;;;;;;;8.55;5.50;;;;;;;20.65;69.05;100677.19;5567914;32;34197;-56
2022/06/02 07:38:47;;;;;;;9.82;4.90;;;;;;;20.62;68.13;100672.44;5568547;32;33568;-56
2022/06/02 07:42:13;;;;;;;7.97;4.50;;;;;;;20.79;68.75;100672.19;5564025;32;33312;-56
2022/06/02 07:45:31;;;;;;;11.35;5.70;;;;;;;20.99;67.80;100669.69;5568290;32;33555;-55
2022/06/02 07:48:52;;;;;;;8.68;5.00;;;;;;;21.19;66.67;100674.19;5566501;32;33965;-55
2022/06/02 07:52:07;;;;;;;11.27;5.55;;;;;;;21.39;67.15;100672.47;5567282;32;33789;-55
2022/06/02 07:55:32;;;;;;;9.15;6.07;;;;;;;21.49;62.94;100680.16;5565800;32;33728;-56
2022/06/02 07:58:53;;;;;;;10.68;5.85;;;;;;;21.40;61.83;100676.78;5567534;32;33704;-55
2022/06/02 08:02:10;;;;;;;9.50;5.82;;;;;;;21.27;62.53;100678.72;5567841;32;34334;-56
2022/06/02 08:05:51;;;;;;;11.48;6.18;;;;;;;21.17;63.73;100676.47;5568198;32;33460;-55
2022/06/02 08:09:21;;;;;;;8.85;5.28;;;;;;;21.17;63.87;100681.91;5523629;32;33635;-56
2022/06/02 08:12:32;;;;;;;10.52;5.68;;;;;;;21.24;65.09;100687.56;5563626;32;34264;-56
2022/06/02 08:15:57;;;;;;;7.80;5.60;;;;;;;21.33;62.16;100687.44;5557540;32;34261;-56
2022/06/02 08:19:12;;;;;;;;;;;;;;;21.33;61.77;100688.25;5568070;32;33556;-56
2022/06/02 08:22:30;;;;;;;14.90;5.90;;;;;;;21.50;63.34;100689.13;5565783;32;34770;-55
2022/06/02 08:25:54;;;;;;;12.20;6.03;;;;;;;21.66;62.48;100697.38;5565568;32;33650;-56
2022/06/02 08:29:33;;;;;;;10.75;5.55;;;;;;;21.93;59.51;100688.37;5552091;32;34234;-55
2022/06/02 08:33:07;;;;;;;8.48;5.00;;;;;;;21.98;61.15;100679.12;5564374;32;33587;-56
2022/06/02 08:36:15;;;;;;;7.45;5.05;;;;;;;22.17;60.74;100684.72;5558328;32;33765;-56
2022/06/02 08:39:17;;;;;;;7.62;5.03;;;;;;;22.03;59.00;100687.84;5565871;32;33666;-56
2022/06/02 08:42:57;;;;;;;7.97;4.65;;;;;;;22.06;59.10;100680.91;5560271;32;33666;-58
2022/06/02 08:46:32;;;;;;;10.00;5.40;;;;;;;22.12;60.08;100679.50;5563027;32;33952;-56
2022/06/02 08:49:43;;;;;;;9.55;4.75;;;;;;;22.26;60.03;100679.09;5563118;32;33638;-55
2022/06/02 08:52:48;;;;;;;9.90;5.03;;;;;;;22.39;59.63;100675.16;5567305;32;34320;-55
2022/06/02 08:56:05;;;;;;;13.65;5.45;;;;;;;22.52;58.78;100684.03;5566601;32;33666;-56
2022/06/02 08:59:38;;;;;;;8.98;4.80;;;;;;;22.55;57.23;100693.44;5565357;32;33719;-55
2022/06/02 09:03:13;;;;;;;20.05;5.80;;;;;;;22.63;58.46;100687.81;5567985;32;33669;-56
2022/06/02 09:06:19;;;;;;;9.70;4.43;;;;;;;22.63;57.20;100687.81;5562318;32;33677;-55
2022/06/02 09:09:39;;;;;;;11.27;5.00;;;;;;;22.61;58.85;100689.31;5562728;32;34271;-56
2022/06/02 09:12:54;;;;;;;8.18;5.50;;;;;;;22.64;57.09;100692.13;5563103;32;33799;-57
2022/06/02 09:16:26;;;;;;;6.53;4.75;;;;;;;22.67;58.19;100691.41;5567884;32;31977;-56
2022/06/02 09:19:47;;;;;;;5.87;4.47;;;;;;;22.62;56.55;100702.63;5564347;32;34354;-57
2022/06/02 09:23:03;;;;;;;7.28;4.43;;;;;;;22.74;56.77;100701.72;5564925;32;33722;-56
2022/06/02 09:26:30;;;;;;;8.32;4.90;;;;;;;22.74;57.32;100697.03;5562865;32;34314;-56
2022/06/02 09:29:45;;;;;;;27.95;4.47;;;;;;;22.92;57.43;100693.94;5566830;32;32531;-56
2022/06/02 09:33:34;;;;;;;14.55;4.70;;;;;;;23.00;58.08;100697.66;5564650;32;33708;-58
2022/06/02 09:36:48;;;;;;;9.20;4.15;;;;;;;23.08;57.63;100692.00;5558325;32;34184;-56
2022/06/02 09:40:29;;;;;;;7.85;4.28;;;;;;;23.23;55.75;100700.50;5557397;32;34110;-56
2022/06/02 09:43:38;;;;;;;13.35;4.70;;;;;;;23.12;55.11;100700.28;5566672;32;33801;-56
2022/06/02 09:46:54;;;;;;;5.65;3.20;;;;;;;23.11;56.31;100704.16;5566807;32;33620;-56
2022/06/02 09:50:15;;;;;;;6.07;2.80;;;;;;;23.28;54.77;100706.50;5553476;32;34330;-56
2022/06/02 09:53:55;;;;;;;3.83;2.47;;;;;;;23.33;54.18;100697.19;5557810;32;33643;-56
2022/06/02 10:01:19;;;;;;;4.43;3.17;;;;;;;23.48;57.03;100693.63;5554442;32;33752;-56
2022/06/02 10:04:40;;;;;;;4.82;2.92;;;;;;;23.67;53.91;100703.75;5563402;32;34411;-56
2022/06/02 10:08:27;;;;;;;3.75;3.03;;;;;;;23.63;54.27;100687.25;5565952;32;33728;-56
2022/06/02 10:11:40;;;;;;;4.12;2.62;;;;;;;23.64;54.07;100696.25;5530322;32;32899;-56
2022/06/02 10:15:12;;;;;;;3.78;2.22;;;;;;;23.72;53.75;100683.56;5561637;32;33714;-56
2022/06/02 10:18:27;;;;;;;4.53;2.40;;;;;;;23.75;52.16;100683.63;5567335;32;33896;-57
2022/06/02 10:21:44;;;;;;;3.78;2.50;;;;;;;23.81;52.36;100684.91;5559475;31;33619;-57
2022/06/02 10:24:53;;;;;;;3.30;2.25;;;;;;;23.84;52.39;100680.63;5567098;32;33881;-55
2022/06/02 10:28:17;;;;;;;4.15;2.67;;;;;;;23.97;52.84;100676.56;5564798;32;33839;-55
2022/06/02 10:31:33;;;;;;;;;;;;;;;24.04;51.95;100679.47;5561557;31;33655;-55
2022/06/02 10:34:44;;;;;;;5.78;2.70;;;;;;;23.96;52.30;100675.00;5564039;32;34606;-56
2022/06/02 10:38:01;;;;;;;3.87;2.90;;;;;;;23.86;52.03;100679.12;5565048;32;33638;-55
2022/06/02 10:41:41;;;;;;;3.65;2.72;;;;;;;23.80;53.80;100680.56;5564680;32;33398;-56
2022/06/02 10:44:47;;;;;;;7.53;2.92;;;;;;;23.70;52.63;100678.44;5564211;32;34287;-56
2022/06/02 10:47:59;;;;;;;3.12;2.10;;;;;;;23.65;53.15;100684.19;5565689;32;34015;-56
2022/06/02 10:51:10;;;;;;;4.15;2.83;;;;;;;23.73;53.64;100683.19;5557020;32;33859;-56
2022/06/02 10:54:27;;;;;;;3.65;2.30;;;;;;;23.87;52.61;100688.94;5553193;32;33729;-56
2022/06/02 10:57:31;;;;;;;3.35;2.60;;;;;;;23.99;52.94;100687.97;5559836;31;33671;-56
2022/06/02 11:01:06;;;;;;;3.28;2.60;;;;;;;24.04;52.08;100684.13;5566195;31;34015;-55
2022/06/02 11:04:47;;;;;;;2.95;2.45;;;;;;;23.97;52.35;100689.47;5550436;31;33745;-56
2022/06/02 11:08:27;;;;;;;3.30;2.75;;;;;;;23.89;54.21;100683.88;5555926;32;34518;-56
2022/06/02 11:11:44;;;;;;;4.50;3.00;;;;;;;23.89;53.66;100689.34;5560231;32;33799;-56
2022/06/02 11:15:23;;;;;;;7.90;3.60;;;;;;;24.03;54.17;100685.28;5566534;32;34351;-55
2022/06/02 11:18:44;;;;;;;4.93;3.33;;;;;;;24.07;54.56;100681.47;5567213;32;33866;-55
2022/06/02 11:22:07;;;;;;;6.05;3.53;;;;;;;24.07;55.12;100667.78;5566103;32;33718;-55
2022/06/02 11:25:21;;;;;;;5.72;2.90;;;;;;;24.01;54.25;100669.25;5566202;32;33715;-55
2022/06/02 11:28:35;;;;;;;3.42;2.78;;;;;;;24.04;54.84;100682.22;5567336;32;34287;-55
2022/06/02 11:32:00;;;;;;;5.12;3.20;;;;;;;24.06;53.21;100681.81;5561168;32;34313;-55
2022/06/02 11:35:46;;;;;;;4.53;3.30;;;;;;;23.96;53.63;100682.44;5563703;32;33747;-55
2022/06/02 11:39:26;;;;;;;5.03;3.00;;;;;;;23.84;53.67;100681.47;5560154;32;34377;-56
2022/06/02 11:42:31;;;;;;;4.57;2.60;;;;;;;24.07;51.78;100689.69;5556773;31;34337;-55
2022/06/02 11:46:11;;;;;;;3.95;2.90;;;;;;;24.18;51.61;100689.88;5565480;31;33816;-56
2022/06/02 11:49:47;;;;;;;3.55;2.90;;;;;;;24.23;51.50;100681.34;5565801;32;33745;-56
2022/06/02 11:52:53;;;;;;;2.92;2.60;;;;;;;24.06;51.62;100693.56;5561392;32;33556;-55
2022/06/02 11:56:05;;;;;;;6.97;2.37;;;;;;;23.95;52.52;100686.34;5563815;32;33774;-55
2022/06/02 11:59:19;;;;;;;2.53;2.30;;;;;;;24.09;51.87;100692.06;5557481;32;34435;-55
2022/06/02 12:02:33;;;;;;;4.50;2.40;;;;;;;24.35;50.41;100694.87;5551921;32;33705;-55
2022/06/02 12:06:01;;;;;;;3.73;2.20;;;;;;;24.39;50.01;100684.75;5558863;32;33704;-56
2022/06/02 12:09:32;;;;;;;2.85;2.30;;;;;;;24.54;49.14;100688.56;5555424;32;34331;-56
2022/06/02 12:13:09;;;;;;;2.78;2.22;;;;;;;24.52;49.12;100687.34;5558243;32;34415;-55
2022/06/02 12:16:28;;;;;;;2.75;2.12;;;;;;;24.67;48.16;100689.16;5559782;32;33704;-55
2022/06/02 12:20:13;;;;;;;5.05;1.70;;;;;;;24.64;48.53;100689.09;5567973;32;33874;-56
2022/06/02 12:23:48;;;;;;;1.70;1.45;;;;;;;24.74;45.86;100692.00;5560486;32;33728;-56
2022/06/02 12:27:13;;;;;;;3.53;2.00;;;;;;;24.82;46.51;100698.37;5569510;32;33749;-56
2022/06/02 12:30:34;;;;;;;1.73;1.48;;;;;;;24.88;45.10;100696.09;5568362;32;34355;-55
2022/06/02 12:33:58;;;;;;;10.27;2.50;;;;;;;24.97;45.64;100696.62;5569906;32;33755;-56
2022/06/02 12:37:25;;;;;;;4.37;1.77;;;;;;;24.97;49.52;100691.16;5569087;32;33788;-56
2022/06/02 12:40:34;;;;;;;3.67;1.70;;;;;;;25.03;45.03;100689.66;5567072;32;33609;-55
2022/06/02 12:44:01;;;;;;;1.67;1.37;;;;;;;25.11;42.44;100685.84;5568807;32;33748;-55
2022/06/02 12:47:10;;;;;;;1.55;1.20;;;;;;;25.08;41.84;100697.56;5569431;32;34562;-56
2022/06/02 12:50:43;;;;;;;1.50;1.40;;;;;;;25.00;42.67;100706.84;5569189;32;33696;-56
2022/06/02 12:54:25;;;;;;;2.05;1.30;;;;;;;25.02;48.74;100707.28;5566912;32;33908;-56
2022/06/02 12:57:33;;;;;;;3.62;1.40;;;;;;;24.97;43.99;100708.37;5563309;32;34322;-56
2022/06/02 13:01:16;;;;;;;0.88;0.88;;;;;;;25.05;43.97;100706.53;5568414;32;33665;-57
2022/06/02 13:05:02;;;;;;;1.42;1.12;;;;;;;24.98;41.95;100709.19;5568349;32;33772;-56
2022/06/02 13:08:32;;;;;;;3.22;1.20;;;;;;;25.09;41.05;100713.62;5550562;31;33704;-56
2022/06/02 13:11:55;;;;;;;2.10;1.30;;;;;;;25.20;41.66;100710.28;5565527;31;33714;-56
2022/06/02 13:15:06;;;;;;;1.83;1.40;;;;;;;25.14;43.98;100706.31;5566300;32;33606;-55
2022/06/02 13:18:14;;;;;;;1.15;1.08;;;;;;;25.24;41.67;100713.88;5568551;32;33404;-56
2022/06/02 13:21:35;;;;;;;1.20;1.10;;;;;;;25.21;42.31;100700.91;5568663;32;34329;-55
2022/06/02 13:25:15;;;;;;;3.08;1.30;;;;;;;25.33;40.52;100706.16;5562283;32;33721;-56
2022/06/02 13:28:26;;;;;;;5.32;1.62;;;;;;;25.28;41.17;100701.78;5567466;31;33733;-55
2022/06/02 13:32:07;;;;;;;4.35;1.37;;;;;;;25.23;42.24;100693.88;5568741;32;34380;-55
2022/06/02 13:35:31;;;;;;;4.22;1.50;;;;;;;25.16;40.89;100701.22;5526773;32;33638;-56
2022/06/02 13:38:36;;;;;;;13.13;1.50;;;;;;;25.16;40.72;100691.03;5530393;32;33655;-57
2022/06/02 13:42:04;;;;;;;2.12;1.40;;;;;;;25.24;40.43;100695.47;5567586;32;33002;-56
2022/06/02 13:45:35;;;;;;;6.03;1.75;;;;;;;25.29;37.92;100684.16;5568077;32;33884;-56
2022/06/02 13:49:12;;;;;;;6.20;1.50;;;;;;;25.23;40.31;100679.34;5547453;32;33600;-55
2022/06/02 13:52:50;;;;;;;3.67;1.00;;;;;;;25.23;41.31;100682.91;5561373;31;33622;-57
2022/06/02 13:59:57;;;;;;;6.47;1.42;;;;;;;25.34;40.98;100685.78;5568645;32;33686;-56
2022/06/02 14:03:17;;;;;;;4.00;1.60;;;;;;;25.34;43.43;100685.00;5566956;32;33891;-56
2022/06/02 14:06:23;;;;;;;3.92;1.55;;;;;;;25.33;41.75;100683.41;5566890;32;33765;-55
2022/06/02 14:09:54;;;;;;;6.47;1.70;;;;;;;25.36;43.20;100685.41;5567794;32;33474;-56
2022/06/02 14:13:13;;;;;;;2.08;1.48;;;;;;;25.30;41.96;100685.75;5550278;32;33577;-56
2022/06/02 14:16:38;;;;;;;3.95;1.50;;;;;;;25.41;41.01;100674.09;5558593;32;33811;-56
2022/06/02 14:20:09;;;;;;;4.47;1.37;;;;;;;25.49;39.29;100687.53;5566008;32;33633;-56
2022/06/02 14:23:49;;;;;;;5.68;1.60;;;;;;;25.42;40.33;100673.72;5569486;32;33769;-55
2022/06/02 14:27:08;;;;;;;6.30;1.85;;;;;;;25.54;40.56;100670.72;5535323;32;33646;-55
2022/06/02 14:30:13;;;;;;;2.10;1.40;;;;;;;25.38;42.17;100674.84;5563115;32;34342;-55
2022/06/02 14:33:16;;;;;;;;;;;;;;;25.51;39.60;100693.44;5567233;32;33774;-56
2022/06/02 14:36:32;;;;;;;4.78;1.73;;;;;;;25.59;36.27;100677.84;5565895;31;33928;-57
2022/06/02 14:39:42;;;;;;;17.42;2.47;;;;;;;25.46;38.94;100673.75;5565002;32;34319;-55
2022/06/02 14:43:03;;;;;;;6.70;2.22;;;;;;;25.50;38.55;100663.63;5566703;32;33663;-57
2022/06/02 14:46:25;;;;;;;4.40;1.20;;;;;;;25.54;40.42;100656.22;5559449;32;33710;-55
2022/06/02 14:50:02;;;;;;;2.97;1.40;;;;;;;25.46;39.72;100662.78;5563782;32;34295;-56
2022/06/02 14:53:14;;;;;;;1.98;1.40;;;;;;;25.51;39.04;100668.72;5538407;32;34430;-56
